Time;durP1;ratioP1;P1;durP2;ratioP2;P2;SDS_P1;SDS_P2;PMS_P1;PMS_P2;Temp;Humidity;BMP_temperature;BMP_pressure;BME280_temperature;BME280_humidity;BME280_pressure;Samples;Min_cycle;Max_cycle;Signal;HPM_P1;HPM_P2
2023/09/04 00:00:55;;;;;;;14.37;11.90;;;13.10;99.90;;;;;;5052803;28;20351;-74
2023/09/04 00:03:22;;;;;;;15.37;13.13;;;13.20;99.90;;;;;;5052540;28;20236;-74
2023/09/04 00:05:49;;;;;;;14.57;12.67;;;13.10;99.90;;;;;;5052572;28;20194;-74
2023/09/04 00:08:16;;;;;;;16.67;13.00;;;13.00;99.90;;;;;;5052436;28;20205;-74
2023/09/04 00:10:44;;;;;;;14.60;13.10;;;13.00;99.90;;;;;;5052661;28;20226;-74
2023/09/04 00:13:11;;;;;;;14.87;12.50;;;12.90;99.90;;;;;;5052470;28;20649;-74
2023/09/04 00:15:38;;;;;;;14.03;12.53;;;12.90;99.90;;;;;;5052591;28;20204;-74
2023/09/04 00:18:05;;;;;;;13.77;12.13;;;12.90;99.90;;;;;;5052413;28;20198;-74
2023/09/04 00:20:31;;;;;;;12.73;11.43;;;12.90;99.90;;;;;;5052280;28;20201;-73
2023/09/04 00:22:58;;;;;;;13.07;11.80;;;12.90;99.90;;;;;;5052424;28;20225;-74
2023/09/04 00:25:24;;;;;;;13.83;12.17;;;12.90;99.90;;;;;;5052379;28;20259;-74
2023/09/04 00:27:54;;;;;;;13.30;11.50;;;12.90;99.90;;;;;;5052440;28;20271;-74
2023/09/04 00:30:21;;;;;;;12.47;11.17;;;12.90;99.90;;;;;;5056723;28;20222;-74
2023/09/04 00:32:48;;;;;;;13.67;10.83;;;12.70;99.90;;;;;;5059053;28;20243;-74
2023/09/04 00:35:15;;;;;;;16.67;12.03;;;12.70;99.90;;;;;;5058904;28;20201;-74
2023/09/04 00:37:42;;;;;;;13.13;11.73;;;12.70;99.90;;;;;;5059034;28;20271;-74
2023/09/04 00:40:09;;;;;;;13.43;11.50;;;12.80;99.90;;;;;;5058999;28;20197;-74
2023/09/04 00:42:36;;;;;;;12.47;11.07;;;12.70;99.90;;;;;;5058818;28;20243;-74
2023/09/04 00:45:06;;;;;;;12.93;11.60;;;12.50;99.90;;;;;;5058921;28;20201;-74
2023/09/04 00:47:33;;;;;;;12.53;11.23;;;12.40;99.90;;;;;;5058941;28;20199;-74
2023/09/04 00:50:01;;;;;;;13.50;10.93;;;12.30;99.90;;;;;;5058547;28;20221;-74
2023/09/04 00:52:28;;;;;;;18.10;11.60;;;12.30;99.90;;;;;;5058953;28;20542;-74
2023/09/04 00:54:55;;;;;;;15.07;11.60;;;12.20;99.90;;;;;;5059035;28;20200;-74
2023/09/04 00:57:22;;;;;;;15.03;11.80;;;12.30;99.90;;;;;;5058933;28;20208;-73
2023/09/04 00:59:50;;;;;;;13.30;11.90;;;12.30;99.90;;;;;;5058867;28;20206;-74
2023/09/04 01:02:19;;;;;;;16.47;12.50;;;12.30;99.90;;;;;;5058795;28;20255;-74
2023/09/04 01:04:46;;;;;;;15.70;12.97;;;12.40;99.90;;;;;;5058757;28;20202;-74
2023/09/04 01:07:12;;;;;;;16.17;12.60;;;12.50;99.90;;;;;;5058918;28;20304;-74
2023/09/04 01:09:39;;;;;;;14.23;12.73;;;12.50;99.90;;;;;;5058724;28;20366;-74
2023/09/04 01:12:11;;;;;;;15.20;12.30;;;12.40;99.90;;;;;;5058750;28;20259;-74
2023/09/04 01:14:44;;;;;;;15.57;12.23;;;12.40;99.90;;;;;;5058850;28;20206;-74
2023/09/04 01:17:13;;;;;;;14.57;12.87;;;12.40;99.90;;;;;;5059302;28;20201;-74
2023/09/04 01:19:41;;;;;;;15.60;12.23;;;12.40;99.90;;;;;;5059014;28;20205;-75
2023/09/04 01:22:09;;;;;;;16.23;12.37;;;12.60;99.90;;;;;;5059039;28;20230;-75
2023/09/04 01:24:37;;;;;;;16.13;13.30;;;12.50;99.90;;;;;;5058975;28;20201;-74
2023/09/04 01:27:07;;;;;;;14.73;12.97;;;12.50;99.90;;;;;;5058570;28;20201;-74
2023/09/04 01:29:40;;;;;;;15.63;12.77;;;12.40;99.90;;;;;;5058529;28;20229;-74
2023/09/04 01:32:09;;;;;;;17.20;12.77;;;12.30;99.90;;;;;;5058419;28;20201;-74
2023/09/04 01:34:40;;;;;;;14.33;12.83;;;12.20;99.90;;;;;;5058576;28;20240;-74
2023/09/04 01:37:09;;;;;;;14.33;12.33;;;12.20;99.90;;;;;;5058586;28;20303;-74
2023/09/04 01:39:38;;;;;;;15.27;13.23;;;12.20;99.90;;;;;;5058456;28;20279;-74
2023/09/04 01:42:04;;;;;;;17.17;13.20;;;12.10;99.90;;;;;;5055233;28;20251;-74
2023/09/04 01:44:32;;;;;;;13.20;11.77;;;12.20;99.90;;;;;;5055495;28;20202;-74
2023/09/04 01:46:59;;;;;;;13.87;11.73;;;12.10;99.90;;;;;;5055047;28;20653;-74
2023/09/04 01:49:26;;;;;;;13.80;11.90;;;12.20;99.90;;;;;;5055383;28;20221;-74
2023/09/04 01:51:53;;;;;;;15.33;12.60;;;12.20;99.90;;;;;;5055371;28;20247;-74
2023/09/04 01:54:21;;;;;;;15.93;12.20;;;12.10;99.90;;;;;;5055431;28;20251;-74
2023/09/04 01:56:48;;;;;;;13.30;11.90;;;12.00;99.90;;;;;;5056070;28;20197;-74
2023/09/04 01:59:14;;;;;;;13.67;11.53;;;12.00;99.90;;;;;;5056278;28;20198;-74
2023/09/04 02:01:41;;;;;;;17.60;13.40;;;11.90;99.90;;;;;;5056167;28;20251;-74
2023/09/04 02:04:08;;;;;;;15.33;12.90;;;11.90;99.90;;;;;;5055378;28;20279;-74
2023/09/04 02:06:35;;;;;;;15.20;12.57;;;11.90;99.90;;;;;;5054991;28;20286;-74
2023/09/04 02:09:02;;;;;;;15.00;12.90;;;12.00;99.90;;;;;;5055084;28;20275;-74
2023/09/04 02:11:30;;;;;;;14.37;12.27;;;11.90;99.90;;;;;;5054921;28;20696;-74
2023/09/04 02:13:57;;;;;;;15.33;12.20;;;12.00;99.90;;;;;;5054780;28;20247;-75
2023/09/04 02:16:23;;;;;;;14.17;12.03;;;12.00;99.90;;;;;;5054739;28;20247;-74
2023/09/04 02:18:50;;;;;;;13.30;11.77;;;11.80;99.90;;;;;;5054495;28;20198;-74
2023/09/04 02:21:18;;;;;;;13.47;12.03;;;11.70;99.90;;;;;;5054339;28;20198;-75
2023/09/04 02:23:44;;;;;;;16.83;12.80;;;11.70;99.90;;;;;;5054405;28;20661;-74
2023/09/04 02:26:11;;;;;;;16.87;12.13;;;11.70;99.90;;;;;;5054536;28;20198;-74
2023/09/04 02:28:39;;;;;;;14.90;12.57;;;11.60;99.90;;;;;;5054272;28;20202;-74
2023/09/04 02:31:07;;;;;;;12.50;11.30;;;11.50;99.90;;;;;;5054330;28;20229;-73
2023/09/04 02:33:34;;;;;;;13.67;12.27;;;11.50;99.90;;;;;;5054182;28;20193;-75
2023/09/04 02:36:01;;;;;;;14.73;12.13;;;11.50;99.90;;;;;;5054489;28;20236;-74
2023/09/04 02:38:27;;;;;;;15.23;12.70;;;11.50;99.90;;;;;;5054498;28;20260;-74
2023/09/04 02:40:54;;;;;;;14.23;11.53;;;11.40;99.90;;;;;;5054491;28;20194;-74
2023/09/04 02:43:20;;;;;;;14.80;12.80;;;11.40;99.90;;;;;;5054226;28;20608;-74
2023/09/04 02:45:48;;;;;;;16.37;12.23;;;11.40;99.90;;;;;;5054206;28;20243;-75
2023/09/04 02:48:15;;;;;;;14.60;12.23;;;11.50;99.90;;;;;;5054371;28;20201;-75
2023/09/04 02:50:42;;;;;;;13.67;11.97;;;11.50;99.90;;;;;;5053867;28;20221;-74
2023/09/04 02:53:08;;;;;;;14.47;12.97;;;11.60;99.90;;;;;;5052934;28;20225;-74
2023/09/04 02:55:35;;;;;;;15.33;13.47;;;11.60;99.90;;;;;;5053826;28;20718;-75
2023/09/04 02:58:02;;;;;;;14.70;12.73;;;11.60;99.90;;;;;;5053914;28;20259;-75
2023/09/04 03:00:28;;;;;;;16.33;12.97;;;11.60;99.90;;;;;;5053837;28;20300;-74
2023/09/04 03:02:56;;;;;;;15.03;12.40;;;11.50;99.90;;;;;;5053945;28;20597;-74
2023/09/04 03:05:25;;;;;;;16.87;13.37;;;11.50;99.90;;;;;;5053727;28;20657;-75
2023/09/04 03:07:52;;;;;;;16.53;13.77;;;11.60;99.90;;;;;;5054025;28;20239;-75
2023/09/04 03:10:19;;;;;;;15.00;13.17;;;11.60;99.90;;;;;;5053846;28;20279;-75
2023/09/04 03:12:45;;;;;;;17.73;13.27;;;11.60;99.90;;;;;;5053606;28;20197;-74
2023/09/04 03:15:12;;;;;;;17.03;13.50;;;11.50;99.90;;;;;;5053636;28;20198;-74
2023/09/04 03:17:38;;;;;;;16.40;14.17;;;11.50;99.90;;;;;;5053446;28;20206;-74
2023/09/04 03:20:10;;;;;;;18.33;15.37;;;11.50;99.90;;;;;;5053350;28;20193;-74
2023/09/04 03:22:37;;;;;;;16.70;14.93;;;11.60;99.90;;;;;;5053242;28;20320;-75
2023/09/04 03:25:03;;;;;;;19.73;14.53;;;11.50;99.90;;;;;;5053309;28;20641;-75
2023/09/04 03:27:30;;;;;;;17.70;15.07;;;11.60;99.90;;;;;;5053350;28;20255;-74
2023/09/04 03:29:57;;;;;;;18.97;15.83;;;11.70;99.90;;;;;;5053141;28;20251;-75
2023/09/04 03:32:24;;;;;;;18.60;15.50;;;11.70;99.90;;;;;;5052993;28;20197;-75
2023/09/04 03:34:51;;;;;;;17.57;15.73;;;11.60;99.90;;;;;;5053375;28;20248;-75
2023/09/04 03:37:19;;;;;;;19.40;16.77;;;11.60;99.90;;;;;;5053489;28;20363;-75
2023/09/04 03:39:46;;;;;;;21.50;16.77;;;11.60;99.90;;;;;;5053282;28;20198;-75
2023/09/04 03:42:13;;;;;;;18.60;16.63;;;11.70;99.90;;;;;;5052912;28;20201;-75
2023/09/04 03:44:40;;;;;;;21.60;17.80;;;11.70;99.90;;;;;;5052905;28;20657;-74
2023/09/04 03:47:06;;;;;;;24.30;18.57;;;11.60;99.90;;;;;;5052939;28;20198;-75
2023/09/04 03:49:33;;;;;;;22.03;18.33;;;11.80;99.90;;;;;;5053117;28;20202;-75
2023/09/04 03:52:00;;;;;;;22.23;18.73;;;11.80;99.90;;;;;;5052936;28;20225;-75
2023/09/04 03:54:29;;;;;;;22.57;19.10;;;11.80;99.90;;;;;;5052987;28;20271;-74
2023/09/04 03:56:56;;;;;;;22.03;19.37;;;11.80;99.90;;;;;;5052940;28;20254;-75
2023/09/04 03:59:22;;;;;;;24.20;19.83;;;11.80;99.90;;;;;;5052651;28;20197;-72
2023/09/04 04:01:49;;;;;;;22.40;19.50;;;11.90;99.90;;;;;;5052940;28;20259;-75
2023/09/04 04:04:16;;;;;;;24.77;19.67;;;11.90;99.90;;;;;;5052190;28;20194;-75
2023/09/04 04:06:42;;;;;;;24.83;20.47;;;12.00;99.90;;;;;;5052752;28;20202;-75
2023/09/04 04:09:11;;;;;;;22.97;19.03;;;12.00;99.90;;;;;;5052540;28;20205;-73
2023/09/04 04:11:39;;;;;;;22.03;19.63;;;12.00;99.90;;;;;;5052459;28;20228;-74
2023/09/04 04:14:07;;;;;;;23.63;20.07;;;12.00;99.90;;;;;;5053083;28;20197;-73
2023/09/04 04:16:33;;;;;;;26.23;21.30;;;12.00;99.90;;;;;;5052759;28;20252;-74
2023/09/04 04:18:59;;;;;;;25.57;20.80;;;11.80;99.90;;;;;;5052524;28;20198;-74
2023/09/04 04:21:26;;;;;;;23.77;20.30;;;11.80;99.90;;;;;;5052349;28;20275;-73
2023/09/04 04:23:52;;;;;;;25.47;21.07;;;11.80;99.90;;;;;;5052497;28;20197;-74
2023/09/04 04:26:19;;;;;;;26.63;20.40;;;11.90;99.90;;;;;;5052444;28;20202;-74
2023/09/04 04:28:47;;;;;;;25.43;21.03;;;11.90;99.90;;;;;;5052383;28;20264;-74
2023/09/04 04:31:14;;;;;;;24.87;20.67;;;11.80;99.90;;;;;;5052572;28;20233;-73
2023/09/04 04:33:40;;;;;;;24.10;20.67;;;11.80;99.90;;;;;;5052660;28;20201;-74
2023/09/04 04:36:07;;;;;;;29.13;20.87;;;11.80;99.90;;;;;;5052392;28;20404;-74
2023/09/04 04:38:34;;;;;;;23.83;20.17;;;11.70;99.90;;;;;;5052346;28;20604;-74
2023/09/04 04:41:00;;;;;;;24.57;20.83;;;11.70;99.90;;;;;;5052112;28;20205;-74
2023/09/04 04:43:27;;;;;;;23.80;20.57;;;11.70;99.90;;;;;;5052448;28;20244;-74
2023/09/04 04:45:55;;;;;;;25.40;20.40;;;11.70;99.90;;;;;;5052439;28;20197;-74
2023/09/04 04:48:22;;;;;;;26.20;20.23;;;11.60;99.90;;;;;;5052550;28;20202;-75
2023/09/04 04:50:48;;;;;;;25.63;21.33;;;11.50;99.90;;;;;;5052352;28;20275;-73
2023/09/04 04:53:15;;;;;;;27.20;21.30;;;11.60;99.90;;;;;;5052175;28;20201;-74
2023/09/04 04:55:41;;;;;;;28.83;22.33;;;11.60;99.90;;;;;;5051895;28;20197;-75
2023/09/04 04:58:08;;;;;;;24.77;21.70;;;11.60;99.90;;;;;;5052171;28;20201;-74
2023/09/04 05:00:35;;;;;;;26.43;20.70;;;11.80;99.90;;;;;;5052103;28;20255;-74
2023/09/04 05:03:03;;;;;;;27.57;21.53;;;11.80;99.90;;;;;;5052075;28;20263;-75
2023/09/04 05:05:29;;;;;;;25.87;21.57;;;11.90;99.90;;;;;;5051874;28;20201;-74
2023/09/04 05:07:56;;;;;;;24.93;21.30;;;11.90;99.90;;;;;;5051815;28;20251;-74
2023/09/04 05:10:23;;;;;;;26.97;22.73;;;12.00;99.90;;;;;;5051827;28;20256;-74
2023/09/04 05:12:49;;;;;;;31.13;22.00;;;12.10;99.90;;;;;;5051825;28;20608;-74
2023/09/04 05:15:16;;;;;;;28.87;21.97;;;12.10;99.90;;;;;;5051987;28;20254;-74
2023/09/04 05:17:43;;;;;;;27.80;21.77;;;12.20;99.90;;;;;;5054901;28;20595;-74
2023/09/04 05:20:12;;;;;;;25.47;21.43;;;12.20;99.90;;;;;;5055661;28;20201;-73
2023/09/04 05:22:39;;;;;;;24.97;21.03;;;12.30;99.90;;;;;;5055622;28;20229;-73
2023/09/04 05:25:06;;;;;;;26.53;21.37;;;12.40;99.90;;;;;;5055460;28;20205;-74
2023/09/04 05:27:33;;;;;;;28.00;21.23;;;12.40;99.90;;;;;;5055390;28;20653;-74
2023/09/04 05:29:59;;;;;;;27.00;21.97;;;12.50;99.90;;;;;;5055561;28;20202;-74
2023/09/04 05:32:26;;;;;;;24.37;21.33;;;12.50;99.90;;;;;;5055386;28;20229;-74
2023/09/04 05:34:53;;;;;;;23.97;21.50;;;12.50;99.90;;;;;;5055386;28;20715;-74
2023/09/04 05:37:21;;;;;;;24.77;22.10;;;12.60;99.90;;;;;;5055181;28;20243;-74
2023/09/04 05:39:49;;;;;;;24.37;20.40;;;12.70;99.90;;;;;;5055512;28;20214;-74
2023/09/04 05:42:15;;;;;;;21.90;19.60;;;12.70;99.90;;;;;;5055390;28;20208;-74
2023/09/04 05:44:42;;;;;;;26.23;21.47;;;12.80;99.90;;;;;;5055196;28;20202;-74
2023/09/04 05:47:09;;;;;;;24.23;20.07;;;12.90;99.90;;;;;;5055138;28;20251;-73
2023/09/04 05:49:36;;;;;;;23.87;20.63;;;13.00;99.90;;;;;;5055015;28;20608;-74
2023/09/04 05:52:02;;;;;;;20.77;18.63;;;13.00;99.90;;;;;;5054643;28;20221;-74
2023/09/04 05:54:31;;;;;;;20.63;18.20;;;13.00;99.90;;;;;;5055229;28;20266;-74
2023/09/04 05:56:57;;;;;;;23.40;18.80;;;13.10;99.90;;;;;;5054992;28;20201;-74
2023/09/04 05:59:24;;;;;;;20.07;18.07;;;13.10;99.90;;;;;;5055044;28;20221;-75
2023/09/04 06:01:51;;;;;;;19.83;17.83;;;13.20;99.90;;;;;;5054874;28;20204;-75
2023/09/04 06:04:17;;;;;;;19.77;17.77;;;13.30;99.90;;;;;;5054778;28;20251;-74
2023/09/04 06:06:44;;;;;;;21.87;19.63;;;13.30;99.90;;;;;;5054557;28;20658;-74
2023/09/04 06:09:10;;;;;;;21.30;18.97;;;13.50;99.90;;;;;;5055243;28;20198;-75
2023/09/04 06:11:38;;;;;;;21.23;19.07;;;13.50;99.90;;;;;;5054743;28;20221;-75
2023/09/04 06:14:05;;;;;;;23.37;20.77;;;13.60;99.90;;;;;;5055047;28;20201;-75
2023/09/04 06:16:33;;;;;;;23.53;21.00;;;13.70;99.90;;;;;;5054624;28;20193;-75
2023/09/04 06:19:00;;;;;;;25.20;19.80;;;13.80;99.90;;;;;;5054536;28;20202;-75
2023/09/04 06:21:26;;;;;;;20.30;17.27;;;13.90;99.90;;;;;;5054404;28;20234;-75
2023/09/04 06:23:53;;;;;;;19.03;17.13;;;13.90;99.90;;;;;;5054307;28;20589;-75
2023/09/04 06:26:20;;;;;;;17.30;15.50;;;14.00;99.90;;;;;;5054442;28;20247;-75
2023/09/04 06:28:48;;;;;;;16.30;14.70;;;14.00;99.90;;;;;;5054264;28;20193;-74
2023/09/04 06:31:14;;;;;;;18.20;14.23;;;14.20;99.90;;;;;;5054287;28;20256;-75
2023/09/04 06:33:43;;;;;;;15.30;13.30;;;14.20;99.90;;;;;;5054097;28;20201;-75
2023/09/04 06:36:10;;;;;;;14.23;12.77;;;14.30;99.90;;;;;;5054487;28;20227;-75
2023/09/04 06:38:37;;;;;;;14.90;12.83;;;14.40;99.90;;;;;;5054454;28;20247;-75
2023/09/04 06:41:04;;;;;;;13.70;12.30;;;14.40;99.90;;;;;;5054157;28;20603;-75
2023/09/04 06:43:31;;;;;;;13.20;11.93;;;14.50;99.90;;;;;;5054249;28;20197;-75
2023/09/04 06:46:00;;;;;;;13.27;12.07;;;14.60;99.90;;;;;;5054706;28;20256;-76
2023/09/04 06:48:27;;;;;;;12.90;11.70;;;14.70;99.90;;;;;;5054454;28;20201;-76
2023/09/04 06:50:54;;;;;;;13.00;11.80;;;14.80;99.90;;;;;;5053871;28;20560;-74
2023/09/04 06:53:20;;;;;;;11.50;10.50;;;14.90;99.90;;;;;;5054077;28;20201;-75
2023/09/04 06:55:48;;;;;;;11.83;10.73;;;15.00;99.90;;;;;;5054009;28;20198;-74
2023/09/04 06:58:15;;;;;;;11.90;10.80;;;15.20;99.90;;;;;;5053985;28;20248;-75
2023/09/04 07:00:42;;;;;;;12.33;11.03;;;15.30;99.90;;;;;;5053978;28;20259;-75
2023/09/04 07:03:10;;;;;;;13.00;11.10;;;15.40;99.90;;;;;;5053935;28;20197;-74
2023/09/04 07:05:36;;;;;;;11.85;10.02;;;15.40;99.90;;;;;;5053705;28;20654;-75
2023/09/04 07:08:05;;;;;;;11.30;9.97;;;15.60;99.90;;;;;;5053901;28;20194;-75
2023/09/04 07:10:31;;;;;;;10.60;9.57;;;15.70;99.90;;;;;;5053751;28;20204;-74
2023/09/04 07:13:00;;;;;;;11.05;9.95;;;15.80;99.90;;;;;;5053632;28;20225;-75
2023/09/04 07:15:27;;;;;;;10.82;8.85;;;15.90;99.90;;;;;;5053610;28;20612;-74
2023/09/04 07:17:53;;;;;;;11.52;9.40;;;16.00;99.90;;;;;;5053709;28;20248;-74
2023/09/04 07:20:21;;;;;;;10.00;9.05;;;16.10;99.90;;;;;;5053670;28;20206;-75
2023/09/04 07:22:48;;;;;;;9.90;8.93;;;16.20;99.90;;;;;;5053548;28;20226;-74
2023/09/04 07:25:14;;;;;;;9.40;8.35;;;16.30;99.90;;;;;;5053672;28;20197;-75
2023/09/04 07:27:41;;;;;;;9.57;8.68;;;16.40;99.90;;;;;;5053557;28;20194;-73
2023/09/04 07:30:09;;;;;;;9.23;8.32;;;16.60;99.90;;;;;;5053089;28;20193;-75
2023/09/04 07:32:35;;;;;;;8.77;7.88;;;16.80;99.90;;;;;;5053197;28;20225;-74
2023/09/04 07:35:03;;;;;;;9.10;8.30;;;16.90;99.90;;;;;;5053268;28;20201;-74
2023/09/04 07:37:31;;;;;;;8.15;7.30;;;17.00;99.90;;;;;;5053373;28;20205;-73
2023/09/04 07:39:58;;;;;;;9.40;8.20;;;17.20;99.90;;;;;;5052250;28;20654;-74
2023/09/04 07:42:25;;;;;;;8.85;8.00;;;17.20;99.90;;;;;;5052706;28;20244;-73
2023/09/04 07:44:52;;;;;;;8.85;8.02;;;17.30;99.90;;;;;;5052981;28;20281;-73
2023/09/04 07:47:19;;;;;;;8.45;7.55;;;17.60;99.90;;;;;;5052792;28;20727;-74
2023/09/04 07:49:45;;;;;;;7.82;7.15;;;17.60;99.90;;;;;;5053130;28;20220;-73
2023/09/04 07:52:12;;;;;;;10.57;7.97;;;17.70;99.90;;;;;;5050297;28;20236;-73
2023/09/04 07:54:40;;;;;;;7.68;6.97;;;17.80;99.90;;;;;;5038937;28;20233;-72
2023/09/04 07:57:07;;;;;;;9.32;6.57;;;17.90;99.90;;;;;;5042301;28;20198;-73
2023/09/04 07:59:34;;;;;;;7.32;6.72;;;18.00;99.90;;;;;;5052753;28;20194;-73
2023/09/04 08:02:01;;;;;;;6.97;6.30;;;18.20;99.90;;;;;;5052770;28;20205;-73
2023/09/04 08:04:27;;;;;;;7.30;6.60;;;18.30;99.90;;;;;;5052829;28;20247;-72
2023/09/04 08:06:56;;;;;;;8.82;6.90;;;18.40;99.90;;;;;;5052651;28;20197;-73
2023/09/04 08:09:22;;;;;;;6.65;6.05;;;18.60;99.90;;;;;;5052536;28;20592;-74
2023/09/04 08:11:51;;;;;;;7.00;6.35;;;18.80;99.90;;;;;;5052545;28;20229;-73
2023/09/04 08:14:17;;;;;;;6.88;6.13;;;18.90;99.90;;;;;;5052319;28;20646;-74
2023/09/04 08:16:44;;;;;;;6.75;5.93;;;19.20;99.90;;;;;;5052400;28;20193;-73
2023/09/04 08:19:11;;;;;;;6.35;5.72;;;19.30;99.90;;;;;;5052155;28;20650;-73
2023/09/04 08:21:37;;;;;;;6.38;5.13;;;19.40;99.90;;;;;;5052215;28;20307;-73
2023/09/04 08:24:05;;;;;;;5.38;4.90;;;19.70;99.90;;;;;;5052147;28;20546;-73
2023/09/04 08:26:31;;;;;;;7.65;4.90;;;19.70;99.90;;;;;;5052534;28;20202;-73
2023/09/04 08:28:59;;;;;;;5.85;5.25;;;19.80;99.90;;;;;;5052454;28;20271;-73
2023/09/04 08:31:26;;;;;;;5.78;4.90;;;19.90;99.90;;;;;;5052366;28;20251;-75
2023/09/04 08:33:52;;;;;;;5.30;4.65;;;20.20;99.90;;;;;;5052194;28;20194;-73
2023/09/04 08:36:19;;;;;;;5.03;4.63;;;20.40;99.90;;;;;;5052315;28;20193;-74
2023/09/04 08:38:46;;;;;;;4.75;4.35;;;20.60;99.90;;;;;;5052049;28;20202;-76
2023/09/04 08:41:16;;;;;;;4.82;4.32;;;20.60;99.90;;;;;;5051976;28;20535;-76
2023/09/04 08:43:48;;;;;;;5.07;4.40;;;20.70;99.90;;;;;;5052289;28;20251;-76
2023/09/04 08:46:17;;;;;;;4.50;4.10;;;21.00;99.90;;;;;;5052046;28;20752;-77
2023/09/04 08:48:45;;;;;;;5.70;4.22;;;21.20;99.90;;;;;;5052260;28;20259;-78
2023/09/04 08:51:12;;;;;;;4.03;3.72;;;21.30;99.90;;;;;;5053897;28;20637;-76
2023/09/04 08:53:39;;;;;;;6.47;4.45;;;21.30;99.90;;;;;;5056022;28;20231;-78
2023/09/04 08:56:06;;;;;;;5.07;4.20;;;21.40;99.90;;;;;;5056402;28;20198;-77
2023/09/04 08:58:33;;;;;;;4.30;3.90;;;21.60;99.90;;;;;;5056122;28;20198;-80
2023/09/04 09:01:00;;;;;;;4.80;4.40;;;21.80;99.90;;;;;;5056219;28;20201;-77
2023/09/04 09:03:28;;;;;;;5.07;4.50;;;21.80;99.90;;;;;;5056101;28;20197;-75
2023/09/04 09:05:56;;;;;;;5.22;4.32;;;22.00;99.90;;;;;;5055900;28;20201;-75
2023/09/04 09:08:24;;;;;;;4.53;4.13;;;22.10;99.90;;;;;;5056055;28;20198;-76
2023/09/04 09:10:52;;;;;;;5.10;4.38;;;22.10;99.90;;;;;;5056069;28;20201;-75
2023/09/04 09:13:18;;;;;;;4.60;4.22;;;22.40;99.90;;;;;;5055768;28;20225;-75
2023/09/04 09:15:45;;;;;;;4.43;4.03;;;22.50;99.90;;;;;;5055831;28;20251;-74
2023/09/04 09:18:12;;;;;;;4.50;4.10;;;22.50;99.90;;;;;;5055622;28;20202;-75
2023/09/04 09:20:42;;;;;;;5.43;4.57;;;22.40;99.90;;;;;;5055981;28;20243;-75
2023/09/04 09:23:09;;;;;;;4.47;4.13;;;22.60;99.90;;;;;;5041637;28;20226;-75
2023/09/04 09:25:37;;;;;;;5.10;4.60;;;23.00;99.90;;;;;;5035175;28;20210;-75
2023/09/04 09:28:05;;;;;;;5.70;4.60;;;23.20;99.90;;;;;;5035578;28;20194;-74
2023/09/04 09:30:35;;;;;;;5.40;4.50;;;23.10;99.90;;;;;;5035627;28;20209;-73
2023/09/04 09:33:05;;;;;;;4.43;4.13;;;23.10;99.90;;;;;;5035640;28;20226;-74
2023/09/04 09:35:32;;;;;;;4.55;4.10;;;23.60;99.90;;;;;;5035470;28;20195;-75
2023/09/04 09:38:01;;;;;;;4.60;4.20;;;24.00;99.90;;;;;;5035247;28;20233;-74
2023/09/04 09:40:28;;;;;;;4.32;4.00;;;24.40;99.90;;;;;;5035374;28;20202;-73
2023/09/04 09:42:55;;;;;;;4.22;3.88;;;24.60;99.90;;;;;;5035264;28;20237;-74
2023/09/04 09:45:21;;;;;;;4.47;4.07;;;24.70;99.90;;;;;;5034978;28;20255;-75
2023/09/04 09:47:51;;;;;;;4.20;3.90;;;25.00;99.90;;;;;;5035121;28;20198;-76
2023/09/04 09:50:19;;;;;;;6.93;4.10;;;25.00;99.90;;;;;;5035127;28;20194;-75
2023/09/04 09:53:00;;;;;;;4.70;3.70;;;25.60;99.90;;;;;;5035001;28;20293;-74
2023/09/04 09:55:29;;;;;;;3.63;3.33;;;26.00;99.90;;;;;;5034803;28;20234;-75
2023/09/04 09:57:57;;;;;;;5.72;3.70;;;25.90;99.90;;;;;;5034944;28;20276;-74
2023/09/04 10:00:26;;;;;;;4.28;3.88;;;26.00;99.90;;;;;;5035066;28;20264;-74
2023/09/04 10:02:52;;;;;;;10.70;4.18;;;26.30;99.90;;;;;;5034223;28;20206;-74
2023/09/04 10:05:21;;;;;;;4.43;4.05;;;26.70;99.90;;;;;;5034759;28;20206;-74
2023/09/04 10:07:52;;;;;;;4.97;3.78;;;26.60;99.90;;;;;;5034512;28;20253;-75
2023/09/04 10:10:21;;;;;;;3.95;3.47;;;26.60;99.90;;;;;;5034714;28;20205;-75
2023/09/04 10:12:50;;;;;;;3.67;3.38;;;26.90;99.90;;;;;;5035012;28;20617;-75
2023/09/04 10:15:23;;;;;;;3.92;3.28;;;27.00;99.30;;;;;;5034634;28;20537;-75
2023/09/04 10:17:55;;;;;;;3.80;3.50;;;26.90;99.90;;;;;;5034509;28;20203;-74
2023/09/04 10:20:23;;;;;;;3.35;3.05;;;27.20;98.60;;;;;;5034668;28;20202;-74
2023/09/04 10:22:57;;;;;;;3.70;3.40;;;27.40;98.30;;;;;;5034153;28;20234;-75
2023/09/04 10:25:32;;;;;;;4.63;3.40;;;27.60;97.90;;;;;;5034254;28;20577;-74
2023/09/04 10:28:04;;;;;;;4.30;3.60;;;27.90;96.80;;;;;;5034315;28;20233;-75
2023/09/04 10:30:33;;;;;;;3.75;3.42;;;28.30;96.00;;;;;;5034288;28;20260;-74
2023/09/04 10:33:00;;;;;;;3.63;3.30;;;28.40;96.30;;;;;;5033785;28;20221;-75
2023/09/04 10:35:28;;;;;;;3.40;3.10;;;28.70;94.40;;;;;;5034161;28;20194;-76
2023/09/04 10:37:57;;;;;;;5.45;2.90;;;29.00;93.60;;;;;;5033979;28;20669;-75
2023/09/04 10:40:26;;;;;;;4.70;3.42;;;29.20;92.00;;;;;;5034204;28;20240;-76
2023/09/04 10:42:53;;;;;;;3.60;3.30;;;29.80;91.80;;;;;;5034185;28;20252;-75
2023/09/04 10:45:20;;;;;;;3.17;2.90;;;30.20;91.20;;;;;;5034143;28;20205;-75
2023/09/04 10:47:47;;;;;;;3.83;3.38;;;30.10;89.60;;;;;;5033837;28;20202;-74
2023/09/04 10:50:27;;;;;;;3.45;3.15;;;30.80;87.30;;;;;;5034456;28;20209;-76
2023/09/04 10:52:54;;;;;;;3.42;3.13;;;30.70;82.90;;;;;;5034067;28;20213;-76
2023/09/04 10:55:21;;;;;;;3.90;3.10;;;30.80;80.00;;;;;;5034331;28;20201;-76
2023/09/04 10:57:58;;;;;;;3.60;3.30;;;30.90;79.30;;;;;;5053122;28;20228;-77
2023/09/04 11:00:30;;;;;;;3.47;3.17;;;30.90;77.80;;;;;;5053784;28;20205;-74
2023/09/04 11:02:59;;;;;;;3.55;3.13;;;31.70;78.40;;;;;;5053704;28;20213;-74
2023/09/04 11:05:25;;;;;;;5.85;3.10;;;31.60;75.30;;;;;;5049366;28;20288;-74
2023/09/04 11:07:51;;;;;;;3.92;2.60;;;32.00;74.90;;;;;;5053660;28;20263;-73
2023/09/04 11:10:37;;;;;;;3.10;2.90;;;32.80;73.20;;;;;;5053639;28;20589;-73
2023/09/04 11:13:05;;;;;;;3.20;2.90;;;33.30;69.60;;;;;;5053305;28;20627;-74
2023/09/04 11:15:34;;;;;;;4.15;3.03;;;33.40;64.90;;;;;;5052462;28;20255;-74
2023/09/04 11:18:01;;;;;;;3.17;2.90;;;33.70;60.50;;;;;;5053471;28;20207;-74
2023/09/04 11:20:28;;;;;;;3.95;3.08;;;33.60;59.60;;;;;;5052754;28;20193;-74
2023/09/04 11:22:56;;;;;;;4.53;2.90;;;34.20;61.40;;;;;;5052865;28;20236;-74
2023/09/04 11:25:23;;;;;;;2.88;2.67;;;33.90;58.50;;;;;;5052870;28;20189;-73
2023/09/04 11:27:50;;;;;;;3.33;3.03;;;34.00;56.90;;;;;;5053112;28;20197;-74
2023/09/04 11:30:18;;;;;;;4.45;3.00;;;34.00;56.70;;;;;;5052752;28;20653;-74
2023/09/04 11:32:45;;;;;;;2.80;2.60;;;33.90;58.30;;;;;;5052590;28;20615;-74
2023/09/04 11:35:12;;;;;;;3.28;2.97;;;34.30;56.80;;;;;;5052699;28;20197;-75
2023/09/04 11:37:39;;;;;;;4.63;2.80;;;35.00;57.30;;;;;;5052495;28;20221;-75
2023/09/04 11:40:08;;;;;;;3.70;3.00;;;35.10;55.00;;;;;;5052528;28;20201;-75
2023/09/04 11:42:35;;;;;;;3.30;3.00;;;35.00;54.40;;;;;;5053050;28;20197;-75
2023/09/04 11:45:03;;;;;;;3.15;2.85;;;35.20;55.00;;;;;;5052677;28;20380;-75
2023/09/04 11:47:32;;;;;;;3.45;3.15;;;35.50;55.60;;;;;;5052763;28;20220;-74
2023/09/04 11:49:59;;;;;;;3.78;2.85;;;35.60;53.50;;;;;;5052422;28;20649;-75
2023/09/04 11:52:28;;;;;;;3.20;2.90;;;35.80;53.70;;;;;;5052218;28;20274;-75
2023/09/04 11:54:55;;;;;;;3.47;3.22;;;36.00;52.60;;;;;;5052675;28;20284;-76
2023/09/04 11:57:22;;;;;;;4.45;2.92;;;36.30;53.40;;;;;;5052643;28;20201;-75
2023/09/04 11:59:48;;;;;;;2.97;2.75;;;35.70;49.80;;;;;;5052243;28;20185;-74
2023/09/04 12:02:15;;;;;;;5.15;2.78;;;35.90;51.20;;;;;;5052323;28;20596;-75
2023/09/04 12:04:45;;;;;;;3.08;2.88;;;36.40;50.90;;;;;;5052214;28;20201;-74
2023/09/04 12:07:14;;;;;;;3.38;3.17;;;36.90;50.50;;;;;;5052311;28;20668;-75
2023/09/04 12:09:41;;;;;;;5.75;3.00;;;37.20;50.30;;;;;;5051660;28;20290;-75
2023/09/04 12:12:08;;;;;;;3.67;3.25;;;37.50;50.00;;;;;;5048523;28;20205;-75
2023/09/04 12:14:35;;;;;;;3.10;2.80;;;38.00;48.00;;;;;;5040350;28;20299;-75
2023/09/04 12:17:09;;;;;;;3.10;2.80;;;37.50;46.00;;;;;;5050555;28;20254;-75
2023/09/04 12:19:36;;;;;;;3.55;2.90;;;37.70;44.80;;;;;;5036629;28;20201;-75
2023/09/04 12:22:15;;;;;;;3.35;3.10;;;37.50;43.10;;;;;;5032069;28;20283;-75
2023/09/04 12:25:03;;;;;;;3.78;2.92;;;37.70;42.60;;;;;;5040522;28;20201;-75
2023/09/04 12:27:30;;;;;;;3.65;2.97;;;37.70;43.10;;;;;;5059895;28;20193;-75
2023/09/04 12:29:58;;;;;;;3.40;3.10;;;38.10;42.00;;;;;;5072256;28;20200;-75
2023/09/04 12:32:25;;;;;;;3.10;2.90;;;37.00;43.50;;;;;;5072437;28;20197;-76
2023/09/04 12:35:00;;;;;;;3.10;2.90;;;37.70;43.00;;;;;;5072125;28;20235;-75
2023/09/04 12:37:30;;;;;;;3.20;2.90;;;38.10;42.20;;;;;;5072456;28;20651;-76